sensor_id;sensor_type;location;lat;lon;timestamp;temperature;humidity
13697;DHT22;6920;50.080;8.226;2022-11-20T00:00:55;3.80;99.90
13697;DHT22;6920;50.080;8.226;2022-11-20T00:03:24;3.60;99.90
13697;DHT22;6920;50.080;8.226;2022-11-20T00:05:53;3.50;99.90
13697;DHT22;6920;50.080;8.226;2022-11-20T00:08:22;3.50;99.90
13697;DHT22;6920;50.080;8.226;2022-11-20T00:10:49;3.60;99.90
13697;DHT22;6920;50.080;8.226;2022-11-20T00:13:17;3.50;99.90
13697;DHT22;6920;50.080;8.226;2022-11-20T00:15:46;3.60;99.90
13697;DHT22;6920;50.080;8.226;2022-11-20T00:18:13;3.60;99.90
13697;DHT22;6920;50.080;8.226;2022-11-20T00:20:42;3.40;99.90
13697;DHT22;6920;50.080;8.226;2022-11-20T00:23:11;3.40;99.90
13697;DHT22;6920;50.080;8.226;2022-11-20T00:25:38;3.40;99.90
13697;DHT22;6920;50.080;8.226;2022-11-20T00:30:32;3.30;99.90
13697;DHT22;6920;50.080;8.226;2022-11-20T00:33:01;3.30;99.90
13697;DHT22;6920;50.080;8.226;2022-11-20T00:35:28;3.20;99.90
13697;DHT22;6920;50.080;8.226;2022-11-20T00:37:56;3.30;99.90
13697;DHT22;6920;50.080;8.226;2022-11-20T00:40:26;3.20;99.90
13697;DHT22;6920;50.080;8.226;2022-11-20T00:42:53;3.20;99.90
13697;DHT22;6920;50.080;8.226;2022-11-20T00:45:24;3.40;99.90
13697;DHT22;6920;50.080;8.226;2022-11-20T00:47:51;3.40;99.90
13697;DHT22;6920;50.080;8.226;2022-11-20T00:50:20;3.40;99.90
13697;DHT22;6920;50.080;8.226;2022-11-20T00:52:47;3.30;99.90
13697;DHT22;6920;50.080;8.226;2022-11-20T00:55:14;3.30;99.90
13697;DHT22;6920;50.080;8.226;2022-11-20T00:57:44;3.30;99.90
13697;DHT22;6920;50.080;8.226;2022-11-20T01:00:11;3.30;99.90
13697;DHT22;6920;50.080;8.226;2022-11-20T01:02:38;3.20;99.90
13697;DHT22;6920;50.080;8.226;2022-11-20T01:05:07;3.20;99.90
13697;DHT22;6920;50.080;8.226;2022-11-20T01:07:35;3.30;99.90
13697;DHT22;6920;50.080;8.226;2022-11-20T01:10:05;3.20;99.90
13697;DHT22;6920;50.080;8.226;2022-11-20T01:12:33;3.40;99.90
13697;DHT22;6920;50.080;8.226;2022-11-20T01:15:02;3.20;99.90
13697;DHT22;6920;50.080;8.226;2022-11-20T01:17:31;3.20;99.90
13697;DHT22;6920;50.080;8.226;2022-11-20T01:22:27;3.00;99.90
13697;DHT22;6920;50.080;8.226;2022-11-20T01:24:54;3.10;99.90
13697;DHT22;6920;50.080;8.226;2022-11-20T01:27:21;3.20;99.90
13697;DHT22;6920;50.080;8.226;2022-11-20T01:29:48;3.20;99.90
13697;DHT22;6920;50.080;8.226;2022-11-20T01:32:17;3.10;99.90
13697;DHT22;6920;50.080;8.226;2022-11-20T01:34:44;3.10;99.90
13697;DHT22;6920;50.080;8.226;2022-11-20T01:37:11;2.80;99.90
13697;DHT22;6920;50.080;8.226;2022-11-20T01:39:40;3.00;99.90
13697;DHT22;6920;50.080;8.226;2022-11-20T01:42:07;3.10;99.90
13697;DHT22;6920;50.080;8.226;2022-11-20T01:44:55;3.00;99.90
13697;DHT22;6920;50.080;8.226;2022-11-20T01:47:43;2.90;99.90
13697;DHT22;6920;50.080;8.226;2022-11-20T01:50:16;3.00;99.90
13697;DHT22;6920;50.080;8.226;2022-11-20T01:52:48;3.00;99.90
13697;DHT22;6920;50.080;8.226;2022-11-20T01:55:20;3.10;99.90
13697;DHT22;6920;50.080;8.226;2022-11-20T01:57:50;3.10;99.90
13697;DHT22;6920;50.080;8.226;2022-11-20T02:00:20;3.10;99.90
13697;DHT22;6920;50.080;8.226;2022-11-20T02:02:52;3.00;99.90
13697;DHT22;6920;50.080;8.226;2022-11-20T02:05:24;3.00;99.90
13697;DHT22;6920;50.080;8.226;2022-11-20T02:07:54;2.90;99.90
13697;DHT22;6920;50.080;8.226;2022-11-20T02:10:23;2.90;99.90
13697;DHT22;6920;50.080;8.226;2022-11-20T02:12:50;2.80;99.90
13697;DHT22;6920;50.080;8.226;2022-11-20T02:15:33;2.70;99.90
13697;DHT22;6920;50.080;8.226;2022-11-20T02:18:02;2.80;99.90
13697;DHT22;6920;50.080;8.226;2022-11-20T02:20:31;2.90;99.90
13697;DHT22;6920;50.080;8.226;2022-11-20T02:23:02;2.90;99.90
13697;DHT22;6920;50.080;8.226;2022-11-20T02:25:33;3.00;99.90
13697;DHT22;6920;50.080;8.226;2022-11-20T02:28:03;3.10;99.90
13697;DHT22;6920;50.080;8.226;2022-11-20T02:30:31;3.10;99.90
13697;DHT22;6920;50.080;8.226;2022-11-20T02:32:59;3.10;99.90
13697;DHT22;6920;50.080;8.226;2022-11-20T02:35:45;3.00;99.90
13697;DHT22;6920;50.080;8.226;2022-11-20T02:38:14;2.90;99.90
13697;DHT22;6920;50.080;8.226;2022-11-20T02:40:44;3.10;99.90
13697;DHT22;6920;50.080;8.226;2022-11-20T02:43:11;3.10;99.90
13697;DHT22;6920;50.080;8.226;2022-11-20T02:45:41;3.10;99.90
13697;DHT22;6920;50.080;8.226;2022-11-20T02:48:09;3.20;99.90
13697;DHT22;6920;50.080;8.226;2022-11-20T02:50:39;3.30;99.90
13697;DHT22;6920;50.080;8.226;2022-11-20T02:53:06;3.30;99.90
13697;DHT22;6920;50.080;8.226;2022-11-20T02:55:34;3.30;99.90
13697;DHT22;6920;50.080;8.226;2022-11-20T02:58:03;3.10;99.90
13697;DHT22;6920;50.080;8.226;2022-11-20T03:00:30;3.10;99.90
13697;DHT22;6920;50.080;8.226;2022-11-20T03:02:58;3.10;99.90
13697;DHT22;6920;50.080;8.226;2022-11-20T03:05:25;3.10;99.90
13697;DHT22;6920;50.080;8.226;2022-11-20T03:07:52;3.10;99.90
13697;DHT22;6920;50.080;8.226;2022-11-20T03:10:20;3.10;99.90
13697;DHT22;6920;50.080;8.226;2022-11-20T03:12:53;3.10;99.90
13697;DHT22;6920;50.080;8.226;2022-11-20T03:15:22;3.00;99.90
13697;DHT22;6920;50.080;8.226;2022-11-20T03:17:52;3.10;99.90
13697;DHT22;6920;50.080;8.226;2022-11-20T03:20:19;2.90;99.90
13697;DHT22;6920;50.080;8.226;2022-11-20T03:22:46;3.00;99.90
13697;DHT22;6920;50.080;8.226;2022-11-20T03:25:13;3.00;99.90
13697;DHT22;6920;50.080;8.226;2022-11-20T03:27:40;3.10;99.90
13697;DHT22;6920;50.080;8.226;2022-11-20T03:30:09;3.20;99.90
13697;DHT22;6920;50.080;8.226;2022-11-20T03:32:38;3.20;99.90
13697;DHT22;6920;50.080;8.226;2022-11-20T03:35:08;3.30;99.90
13697;DHT22;6920;50.080;8.226;2022-11-20T03:37:35;3.20;99.90
13697;DHT22;6920;50.080;8.226;2022-11-20T03:40:03;3.20;99.90
13697;DHT22;6920;50.080;8.226;2022-11-20T03:42:32;3.10;99.90
13697;DHT22;6920;50.080;8.226;2022-11-20T03:45:13;3.20;99.90
13697;DHT22;6920;50.080;8.226;2022-11-20T03:47:41;3.10;99.90
13697;DHT22;6920;50.080;8.226;2022-11-20T03:50:10;3.20;99.90
13697;DHT22;6920;50.080;8.226;2022-11-20T03:52:38;3.20;99.90
13697;DHT22;6920;50.080;8.226;2022-11-20T03:55:05;3.20;99.90
13697;DHT22;6920;50.080;8.226;2022-11-20T03:57:33;3.10;99.90
13697;DHT22;6920;50.080;8.226;2022-11-20T04:00:00;3.10;99.90
13697;DHT22;6920;50.080;8.226;2022-11-20T04:02:27;3.30;99.90
13697;DHT22;6920;50.080;8.226;2022-11-20T04:04:56;3.20;99.90
13697;DHT22;6920;50.080;8.226;2022-11-20T04:07:24;3.20;99.90
13697;DHT22;6920;50.080;8.226;2022-11-20T04:09:51;3.30;99.90
13697;DHT22;6920;50.080;8.226;2022-11-20T04:12:19;3.20;99.90
13697;DHT22;6920;50.080;8.226;2022-11-20T04:14:47;3.20;99.90
13697;DHT22;6920;50.080;8.226;2022-11-20T04:17:14;3.30;99.90
13697;DHT22;6920;50.080;8.226;2022-11-20T04:19:41;3.30;99.90
13697;DHT22;6920;50.080;8.226;2022-11-20T04:22:10;3.20;99.90
13697;DHT22;6920;50.080;8.226;2022-11-20T04:24:39;3.20;99.90
13697;DHT22;6920;50.080;8.226;2022-11-20T04:27:06;3.20;99.90
13697;DHT22;6920;50.080;8.226;2022-11-20T04:29:33;3.20;99.90
13697;DHT22;6920;50.080;8.226;2022-11-20T04:32:00;3.20;99.90
13697;DHT22;6920;50.080;8.226;2022-11-20T04:34:28;3.20;99.90
13697;DHT22;6920;50.080;8.226;2022-11-20T04:36:55;3.20;99.90
13697;DHT22;6920;50.080;8.226;2022-11-20T04:39:24;3.20;99.90
13697;DHT22;6920;50.080;8.226;2022-11-20T04:41:51;3.20;99.90
13697;DHT22;6920;50.080;8.226;2022-11-20T04:44:39;3.20;99.90
13697;DHT22;6920;50.080;8.226;2022-11-20T04:47:06;2.90;99.90
13697;DHT22;6920;50.080;8.226;2022-11-20T04:49:33;3.20;99.90
13697;DHT22;6920;50.080;8.226;2022-11-20T04:52:00;3.20;99.90
13697;DHT22;6920;50.080;8.226;2022-11-20T04:54:29;3.20;99.90
13697;DHT22;6920;50.080;8.226;2022-11-20T04:56:56;3.20;99.90
13697;DHT22;6920;50.080;8.226;2022-11-20T04:59:24;3.20;99.90
13697;DHT22;6920;50.080;8.226;2022-11-20T05:01:51;3.20;99.90
13697;DHT22;6920;50.080;8.226;2022-11-20T05:04:19;3.10;99.90
13697;DHT22;6920;50.080;8.226;2022-11-20T05:06:46;3.20;99.90
13697;DHT22;6920;50.080;8.226;2022-11-20T05:09:16;3.20;99.90
13697;DHT22;6920;50.080;8.226;2022-11-20T05:11:48;3.20;99.90
13697;DHT22;6920;50.080;8.226;2022-11-20T05:16:42;3.10;99.90
13697;DHT22;6920;50.080;8.226;2022-11-20T05:19:09;3.10;99.90
13697;DHT22;6920;50.080;8.226;2022-11-20T05:21:38;3.10;99.90
13697;DHT22;6920;50.080;8.226;2022-11-20T05:24:06;3.10;99.90
13697;DHT22;6920;50.080;8.226;2022-11-20T05:26:33;3.10;99.90
13697;DHT22;6920;50.080;8.226;2022-11-20T05:29:04;3.20;99.90
13697;DHT22;6920;50.080;8.226;2022-11-20T05:31:31;3.20;99.90
13697;DHT22;6920;50.080;8.226;2022-11-20T05:33:58;3.20;99.90
13697;DHT22;6920;50.080;8.226;2022-11-20T05:36:27;3.20;99.90
13697;DHT22;6920;50.080;8.226;2022-11-20T05:38:55;3.20;99.90
13697;DHT22;6920;50.080;8.226;2022-11-20T05:41:24;3.10;99.90
13697;DHT22;6920;50.080;8.226;2022-11-20T05:43:51;3.10;99.90
13697;DHT22;6920;50.080;8.226;2022-11-20T05:46:20;3.20;99.90
13697;DHT22;6920;50.080;8.226;2022-11-20T05:48:48;3.30;99.90
13697;DHT22;6920;50.080;8.226;2022-11-20T05:51:17;3.40;99.90
13697;DHT22;6920;50.080;8.226;2022-11-20T05:53:45;3.20;99.90
13697;DHT22;6920;50.080;8.226;2022-11-20T05:56:14;3.10;99.90
13697;DHT22;6920;50.080;8.226;2022-11-20T05:58:42;2.80;99.90
13697;DHT22;6920;50.080;8.226;2022-11-20T06:01:12;3.20;99.90
13697;DHT22;6920;50.080;8.226;2022-11-20T06:03:41;3.00;99.90
13697;DHT22;6920;50.080;8.226;2022-11-20T06:06:11;3.00;99.90
13697;DHT22;6920;50.080;8.226;2022-11-20T06:08:39;3.20;99.90
13697;DHT22;6920;50.080;8.226;2022-11-20T06:11:07;3.10;99.90
13697;DHT22;6920;50.080;8.226;2022-11-20T06:13:35;3.20;99.90
13697;DHT22;6920;50.080;8.226;2022-11-20T06:16:03;3.20;99.90
13697;DHT22;6920;50.080;8.226;2022-11-20T06:18:31;3.30;99.90
13697;DHT22;6920;50.080;8.226;2022-11-20T06:21:05;3.20;99.90
13697;DHT22;6920;50.080;8.226;2022-11-20T06:23:33;3.30;99.90
13697;DHT22;6920;50.080;8.226;2022-11-20T06:26:03;3.20;99.90
13697;DHT22;6920;50.080;8.226;2022-11-20T06:28:32;3.40;99.90
13697;DHT22;6920;50.080;8.226;2022-11-20T06:31:00;3.40;99.90
13697;DHT22;6920;50.080;8.226;2022-11-20T06:33:27;3.40;99.90
13697;DHT22;6920;50.080;8.226;2022-11-20T06:35:56;3.40;99.90
13697;DHT22;6920;50.080;8.226;2022-11-20T06:38:25;3.30;99.90
13697;DHT22;6920;50.080;8.226;2022-11-20T06:40:56;3.30;99.90
13697;DHT22;6920;50.080;8.226;2022-11-20T06:43:24;3.50;99.90
13697;DHT22;6920;50.080;8.226;2022-11-20T06:45:53;3.50;99.90
13697;DHT22;6920;50.080;8.226;2022-11-20T06:48:22;3.60;99.90
13697;DHT22;6920;50.080;8.226;2022-11-20T06:50:50;3.60;99.90
13697;DHT22;6920;50.080;8.226;2022-11-20T06:53:17;3.50;99.90
13697;DHT22;6920;50.080;8.226;2022-11-20T06:55:49;3.50;99.90
13697;DHT22;6920;50.080;8.226;2022-11-20T06:58:18;3.60;99.90
13697;DHT22;6920;50.080;8.226;2022-11-20T07:00:45;3.50;99.90
13697;DHT22;6920;50.080;8.226;2022-11-20T07:03:13;3.60;99.90
13697;DHT22;6920;50.080;8.226;2022-11-20T07:05:41;3.70;99.90
13697;DHT22;6920;50.080;8.226;2022-11-20T07:08:08;3.60;99.90
13697;DHT22;6920;50.080;8.226;2022-11-20T07:10:36;3.60;99.90
13697;DHT22;6920;50.080;8.226;2022-11-20T07:13:04;3.70;99.90
13697;DHT22;6920;50.080;8.226;2022-11-20T07:15:34;3.60;99.90
13697;DHT22;6920;50.080;8.226;2022-11-20T07:18:03;3.50;99.90
13697;DHT22;6920;50.080;8.226;2022-11-20T07:20:32;3.60;99.90
13697;DHT22;6920;50.080;8.226;2022-11-20T07:22:59;3.70;99.90
13697;DHT22;6920;50.080;8.226;2022-11-20T07:25:28;3.50;99.90
13697;DHT22;6920;50.080;8.226;2022-11-20T07:27:57;3.70;99.90
13697;DHT22;6920;50.080;8.226;2022-11-20T07:30:28;3.70;99.90
13697;DHT22;6920;50.080;8.226;2022-11-20T07:32:56;3.50;99.90
13697;DHT22;6920;50.080;8.226;2022-11-20T07:35:24;3.50;99.90
13697;DHT22;6920;50.080;8.226;2022-11-20T07:37:51;3.60;99.90
13697;DHT22;6920;50.080;8.226;2022-11-20T07:42:51;3.60;99.90
13697;DHT22;6920;50.080;8.226;2022-11-20T07:45:20;3.60;99.90
13697;DHT22;6920;50.080;8.226;2022-11-20T07:47:48;3.80;99.90
13697;DHT22;6920;50.080;8.226;2022-11-20T07:50:16;3.90;99.90
13697;DHT22;6920;50.080;8.226;2022-11-20T07:52:45;3.80;99.90
13697;DHT22;6920;50.080;8.226;2022-11-20T07:55:14;3.90;99.90
13697;DHT22;6920;50.080;8.226;2022-11-20T07:57:42;3.80;99.90
13697;DHT22;6920;50.080;8.226;2022-11-20T08:00:11;3.80;99.90
13697;DHT22;6920;50.080;8.226;2022-11-20T08:02:39;3.80;99.90
13697;DHT22;6920;50.080;8.226;2022-11-20T08:05:08;3.90;99.90
13697;DHT22;6920;50.080;8.226;2022-11-20T08:07:38;4.00;99.90
13697;DHT22;6920;50.080;8.226;2022-11-20T08:10:07;4.00;99.90
13697;DHT22;6920;50.080;8.226;2022-11-20T08:12:36;3.90;99.90
13697;DHT22;6920;50.080;8.226;2022-11-20T08:15:31;3.90;99.90
13697;DHT22;6920;50.080;8.226;2022-11-20T08:18:04;4.00;99.90
13697;DHT22;6920;50.080;8.226;2022-11-20T08:20:35;4.00;99.90
13697;DHT22;6920;50.080;8.226;2022-11-20T08:23:05;4.00;99.90
13697;DHT22;6920;50.080;8.226;2022-11-20T08:25:34;4.10;99.90
13697;DHT22;6920;50.080;8.226;2022-11-20T08:28:04;4.10;99.90
13697;DHT22;6920;50.080;8.226;2022-11-20T08:30:32;4.60;99.90
13697;DHT22;6920;50.080;8.226;2022-11-20T08:33:01;4.10;99.90
13697;DHT22;6920;50.080;8.226;2022-11-20T08:35:34;4.20;99.90
13697;DHT22;6920;50.080;8.226;2022-11-20T08:38:04;4.30;99.90
13697;DHT22;6920;50.080;8.226;2022-11-20T08:40:32;4.40;99.90
13697;DHT22;6920;50.080;8.226;2022-11-20T08:43:03;4.50;99.90
13697;DHT22;6920;50.080;8.226;2022-11-20T08:45:31;4.50;99.90
13697;DHT22;6920;50.080;8.226;2022-11-20T08:48:00;4.50;99.90
13697;DHT22;6920;50.080;8.226;2022-11-20T08:50:29;4.50;99.90
13697;DHT22;6920;50.080;8.226;2022-11-20T08:53:04;4.70;99.90
13697;DHT22;6920;50.080;8.226;2022-11-20T08:55:33;4.70;99.90
13697;DHT22;6920;50.080;8.226;2022-11-20T08:58:03;4.70;99.90
13697;DHT22;6920;50.080;8.226;2022-11-20T09:00:30;4.60;99.90
13697;DHT22;6920;50.080;8.226;2022-11-20T09:05:26;4.80;99.90
13697;DHT22;6920;50.080;8.226;2022-11-20T09:07:56;4.70;99.90
13697;DHT22;6920;50.080;8.226;2022-11-20T09:10:26;4.60;99.90
13697;DHT22;6920;50.080;8.226;2022-11-20T09:12:55;4.70;99.90
13697;DHT22;6920;50.080;8.226;2022-11-20T09:15:24;4.80;99.90
13697;DHT22;6920;50.080;8.226;2022-11-20T09:17:53;4.80;99.90
13697;DHT22;6920;50.080;8.226;2022-11-20T09:20:21;4.80;99.90
13697;DHT22;6920;50.080;8.226;2022-11-20T09:22:49;4.90;99.90
13697;DHT22;6920;50.080;8.226;2022-11-20T09:25:16;4.90;99.90
13697;DHT22;6920;50.080;8.226;2022-11-20T09:27:45;5.00;99.90
13697;DHT22;6920;50.080;8.226;2022-11-20T09:30:15;5.00;99.90
13697;DHT22;6920;50.080;8.226;2022-11-20T09:32:43;4.80;99.90
13697;DHT22;6920;50.080;8.226;2022-11-20T09:35:10;4.90;99.90
13697;DHT22;6920;50.080;8.226;2022-11-20T09:37:37;4.90;99.90
13697;DHT22;6920;50.080;8.226;2022-11-20T09:40:05;5.10;99.90
13697;DHT22;6920;50.080;8.226;2022-11-20T09:42:39;5.00;99.90
13697;DHT22;6920;50.080;8.226;2022-11-20T09:45:23;5.00;99.90
13697;DHT22;6920;50.080;8.226;2022-11-20T09:48:05;5.00;99.90
13697;DHT22;6920;50.080;8.226;2022-11-20T09:50:45;5.00;99.90
13697;DHT22;6920;50.080;8.226;2022-11-20T09:53:20;5.00;99.90
13697;DHT22;6920;50.080;8.226;2022-11-20T09:55:52;5.00;99.90
13697;DHT22;6920;50.080;8.226;2022-11-20T09:58:28;5.00;99.90
13697;DHT22;6920;50.080;8.226;2022-11-20T10:01:08;5.00;99.90
13697;DHT22;6920;50.080;8.226;2022-11-20T10:03:41;5.00;99.90
13697;DHT22;6920;50.080;8.226;2022-11-20T10:06:16;5.00;99.90
13697;DHT22;6920;50.080;8.226;2022-11-20T10:08:51;4.90;99.90
13697;DHT22;6920;50.080;8.226;2022-11-20T10:11:32;5.00;99.90
13697;DHT22;6920;50.080;8.226;2022-11-20T10:14:08;5.00;99.90
13697;DHT22;6920;50.080;8.226;2022-11-20T10:16:48;5.00;99.90
13697;DHT22;6920;50.080;8.226;2022-11-20T10:19:37;5.00;99.90
13697;DHT22;6920;50.080;8.226;2022-11-20T10:22:21;4.80;99.90
13697;DHT22;6920;50.080;8.226;2022-11-20T10:24:56;4.80;99.90
13697;DHT22;6920;50.080;8.226;2022-11-20T10:27:50;4.80;99.90
13697;DHT22;6920;50.080;8.226;2022-11-20T10:30:22;4.90;99.90
13697;DHT22;6920;50.080;8.226;2022-11-20T10:32:56;4.80;99.90
13697;DHT22;6920;50.080;8.226;2022-11-20T10:35:28;4.80;99.90
13697;DHT22;6920;50.080;8.226;2022-11-20T10:38:00;4.80;99.90
13697;DHT22;6920;50.080;8.226;2022-11-20T10:40:34;4.90;99.90
13697;DHT22;6920;50.080;8.226;2022-11-20T10:43:08;4.90;99.90
13697;DHT22;6920;50.080;8.226;2022-11-20T10:45:53;4.90;99.90
13697;DHT22;6920;50.080;8.226;2022-11-20T10:48:26;4.90;99.90
13697;DHT22;6920;50.080;8.226;2022-11-20T10:51:01;4.90;99.90
13697;DHT22;6920;50.080;8.226;2022-11-20T10:53:46;5.00;99.90
13697;DHT22;6920;50.080;8.226;2022-11-20T10:56:19;5.10;99.90
13697;DHT22;6920;50.080;8.226;2022-11-20T10:58:57;5.10;99.90
13697;DHT22;6920;50.080;8.226;2022-11-20T11:01:27;5.10;99.90
13697;DHT22;6920;50.080;8.226;2022-11-20T11:03:57;5.10;99.90
13697;DHT22;6920;50.080;8.226;2022-11-20T11:06:31;5.20;99.90
13697;DHT22;6920;50.080;8.226;2022-11-20T11:09:04;5.30;99.90
13697;DHT22;6920;50.080;8.226;2022-11-20T11:11:38;5.20;99.90
13697;DHT22;6920;50.080;8.226;2022-11-20T11:14:08;5.20;99.90
13697;DHT22;6920;50.080;8.226;2022-11-20T11:16:40;5.20;99.90
13697;DHT22;6920;50.080;8.226;2022-11-20T11:19:17;5.20;99.90
13697;DHT22;6920;50.080;8.226;2022-11-20T11:21:47;5.40;99.90
13697;DHT22;6920;50.080;8.226;2022-11-20T11:24:20;5.60;99.90
13697;DHT22;6920;50.080;8.226;2022-11-20T11:26:55;5.80;99.90
13697;DHT22;6920;50.080;8.226;2022-11-20T11:29:24;5.80;99.90
13697;DHT22;6920;50.080;8.226;2022-11-20T11:32:03;5.70;99.90
13697;DHT22;6920;50.080;8.226;2022-11-20T11:34:33;5.80;99.90
13697;DHT22;6920;50.080;8.226;2022-11-20T11:37:02;5.80;99.90
13697;DHT22;6920;50.080;8.226;2022-11-20T11:39:32;5.80;99.90
13697;DHT22;6920;50.080;8.226;2022-11-20T11:42:00;5.80;99.90
13697;DHT22;6920;50.080;8.226;2022-11-20T11:44:31;5.70;99.90
13697;DHT22;6920;50.080;8.226;2022-11-20T11:47:22;5.80;99.90
13697;DHT22;6920;50.080;8.226;2022-11-20T11:50:13;5.90;99.90
13697;DHT22;6920;50.080;8.226;2022-11-20T11:52:46;5.90;99.90
13697;DHT22;6920;50.080;8.226;2022-11-20T11:57:46;6.40;99.90
13697;DHT22;6920;50.080;8.226;2022-11-20T12:00:15;6.80;99.90
13697;DHT22;6920;50.080;8.226;2022-11-20T12:02:53;6.90;99.90
13697;DHT22;6920;50.080;8.226;2022-11-20T12:05:27;6.70;99.90
13697;DHT22;6920;50.080;8.226;2022-11-20T12:07:58;6.50;99.90
13697;DHT22;6920;50.080;8.226;2022-11-20T12:10:38;6.30;99.90
13697;DHT22;6920;50.080;8.226;2022-11-20T12:13:18;6.20;99.90
13697;DHT22;6920;50.080;8.226;2022-11-20T12:15:50;6.10;99.90
13697;DHT22;6920;50.080;8.226;2022-11-20T12:18:20;6.00;99.90
13697;DHT22;6920;50.080;8.226;2022-11-20T12:21:00;6.00;99.90
13697;DHT22;6920;50.080;8.226;2022-11-20T12:23:39;6.00;99.90
13697;DHT22;6920;50.080;8.226;2022-11-20T12:26:19;6.00;99.90
13697;DHT22;6920;50.080;8.226;2022-11-20T12:28:59;5.90;99.90
13697;DHT22;6920;50.080;8.226;2022-11-20T12:31:47;5.90;99.90
13697;DHT22;6920;50.080;8.226;2022-11-20T12:34:33;5.90;99.90
13697;DHT22;6920;50.080;8.226;2022-11-20T12:37:14;5.80;99.90
13697;DHT22;6920;50.080;8.226;2022-11-20T12:39:49;5.90;99.90
13697;DHT22;6920;50.080;8.226;2022-11-20T12:42:33;5.90;99.90
13697;DHT22;6920;50.080;8.226;2022-11-20T12:45:30;5.80;99.90
13697;DHT22;6920;50.080;8.226;2022-11-20T12:50:37;6.00;99.90
13697;DHT22;6920;50.080;8.226;2022-11-20T12:53:16;6.00;99.90
13697;DHT22;6920;50.080;8.226;2022-11-20T12:55:55;5.90;99.90
13697;DHT22;6920;50.080;8.226;2022-11-20T12:58:27;5.90;99.90
13697;DHT22;6920;50.080;8.226;2022-11-20T13:01:12;6.10;99.90
13697;DHT22;6920;50.080;8.226;2022-11-20T13:04:13;6.10;99.90
13697;DHT22;6920;50.080;8.226;2022-11-20T13:06:43;6.10;99.90
13697;DHT22;6920;50.080;8.226;2022-11-20T13:09:14;6.10;99.90
13697;DHT22;6920;50.080;8.226;2022-11-20T13:11:44;6.20;99.90
13697;DHT22;6920;50.080;8.226;2022-11-20T13:14:29;6.30;99.90
13697;DHT22;6920;50.080;8.226;2022-11-20T13:17:02;6.30;99.90
13697;DHT22;6920;50.080;8.226;2022-11-20T13:19:35;6.30;99.90
13697;DHT22;6920;50.080;8.226;2022-11-20T13:22:03;6.30;99.90
13697;DHT22;6920;50.080;8.226;2022-11-20T13:24:32;6.40;99.90
13697;DHT22;6920;50.080;8.226;2022-11-20T13:27:05;6.30;99.90
13697;DHT22;6920;50.080;8.226;2022-11-20T13:29:58;6.30;99.90
13697;DHT22;6920;50.080;8.226;2022-11-20T13:32:26;6.30;99.90
13697;DHT22;6920;50.080;8.226;2022-11-20T13:34:59;6.20;99.90
13697;DHT22;6920;50.080;8.226;2022-11-20T13:37:31;6.20;99.90
13697;DHT22;6920;50.080;8.226;2022-11-20T13:40:12;6.20;99.90
13697;DHT22;6920;50.080;8.226;2022-11-20T13:42:45;6.20;99.90
13697;DHT22;6920;50.080;8.226;2022-11-20T13:45:23;6.20;99.90
13697;DHT22;6920;50.080;8.226;2022-11-20T13:47:52;6.20;99.90
13697;DHT22;6920;50.080;8.226;2022-11-20T13:50:28;6.20;99.90
13697;DHT22;6920;50.080;8.226;2022-11-20T13:53:05;6.30;99.90
13697;DHT22;6920;50.080;8.226;2022-11-20T13:55:49;6.30;99.90
13697;DHT22;6920;50.080;8.226;2022-11-20T13:58:42;6.30;99.90
13697;DHT22;6920;50.080;8.226;2022-11-20T14:01:16;6.40;99.90
13697;DHT22;6920;50.080;8.226;2022-11-20T14:03:47;6.40;99.90
13697;DHT22;6920;50.080;8.226;2022-11-20T14:06:28;6.40;99.90
13697;DHT22;6920;50.080;8.226;2022-11-20T14:08:57;6.30;99.90
13697;DHT22;6920;50.080;8.226;2022-11-20T14:11:28;6.50;99.90
13697;DHT22;6920;50.080;8.226;2022-11-20T14:13:59;6.50;99.90
13697;DHT22;6920;50.080;8.226;2022-11-20T14:16:30;6.40;99.90
13697;DHT22;6920;50.080;8.226;2022-11-20T14:19:23;6.40;99.90
13697;DHT22;6920;50.080;8.226;2022-11-20T14:21:53;6.40;99.90
13697;DHT22;6920;50.080;8.226;2022-11-20T14:24:24;6.40;99.90
13697;DHT22;6920;50.080;8.226;2022-11-20T14:26:54;6.40;99.90
13697;DHT22;6920;50.080;8.226;2022-11-20T14:29:27;6.50;99.90
13697;DHT22;6920;50.080;8.226;2022-11-20T14:31:56;6.40;99.90
13697;DHT22;6920;50.080;8.226;2022-11-20T14:34:25;6.40;99.90
13697;DHT22;6920;50.080;8.226;2022-11-20T14:37:00;6.50;99.90
13697;DHT22;6920;50.080;8.226;2022-11-20T14:39:31;6.50;99.90
13697;DHT22;6920;50.080;8.226;2022-11-20T14:42:02;6.60;99.90
13697;DHT22;6920;50.080;8.226;2022-11-20T14:44:33;6.60;99.90
13697;DHT22;6920;50.080;8.226;2022-11-20T14:47:02;6.50;99.90
13697;DHT22;6920;50.080;8.226;2022-11-20T14:49:32;6.50;99.90
13697;DHT22;6920;50.080;8.226;2022-11-20T14:52:02;6.50;99.90
13697;DHT22;6920;50.080;8.226;2022-11-20T14:54:30;6.50;99.90
13697;DHT22;6920;50.080;8.226;2022-11-20T14:57:01;6.50;99.90
13697;DHT22;6920;50.080;8.226;2022-11-20T14:59:30;6.40;99.90
13697;DHT22;6920;50.080;8.226;2022-11-20T15:02:01;6.40;99.90
13697;DHT22;6920;50.080;8.226;2022-11-20T15:04:29;6.40;99.90
13697;DHT22;6920;50.080;8.226;2022-11-20T15:06:58;6.30;99.90
13697;DHT22;6920;50.080;8.226;2022-11-20T15:09:26;6.30;99.90
13697;DHT22;6920;50.080;8.226;2022-11-20T15:11:56;6.30;99.90
13697;DHT22;6920;50.080;8.226;2022-11-20T15:14:27;6.30;99.90
13697;DHT22;6920;50.080;8.226;2022-11-20T15:16:58;6.30;99.90
13697;DHT22;6920;50.080;8.226;2022-11-20T15:19:26;6.30;99.90
13697;DHT22;6920;50.080;8.226;2022-11-20T15:21:54;6.20;99.90
13697;DHT22;6920;50.080;8.226;2022-11-20T15:24:22;6.00;99.90
13697;DHT22;6920;50.080;8.226;2022-11-20T15:26:50;6.20;99.90
13697;DHT22;6920;50.080;8.226;2022-11-20T15:29:19;6.10;99.90
13697;DHT22;6920;50.080;8.226;2022-11-20T15:31:48;6.10;99.90
13697;DHT22;6920;50.080;8.226;2022-11-20T15:34:16;6.10;99.90
13697;DHT22;6920;50.080;8.226;2022-11-20T15:36:46;6.20;99.90
13697;DHT22;6920;50.080;8.226;2022-11-20T15:39:14;6.20;99.90
13697;DHT22;6920;50.080;8.226;2022-11-20T15:41:45;6.20;99.90
13697;DHT22;6920;50.080;8.226;2022-11-20T15:44:13;6.20;99.90
13697;DHT22;6920;50.080;8.226;2022-11-20T15:46:41;6.30;99.90
13697;DHT22;6920;50.080;8.226;2022-11-20T15:49:15;6.30;99.90
13697;DHT22;6920;50.080;8.226;2022-11-20T15:51:47;6.20;99.90
13697;DHT22;6920;50.080;8.226;2022-11-20T15:54:17;6.30;99.90
13697;DHT22;6920;50.080;8.226;2022-11-20T15:56:47;6.20;99.90
13697;DHT22;6920;50.080;8.226;2022-11-20T15:59:16;6.10;99.90
13697;DHT22;6920;50.080;8.226;2022-11-20T16:01:45;6.10;99.90
13697;DHT22;6920;50.080;8.226;2022-11-20T16:04:16;6.10;99.90
13697;DHT22;6920;50.080;8.226;2022-11-20T16:06:44;6.20;99.90
13697;DHT22;6920;50.080;8.226;2022-11-20T16:09:13;6.20;99.90
13697;DHT22;6920;50.080;8.226;2022-11-20T16:11:40;6.20;99.90
13697;DHT22;6920;50.080;8.226;2022-11-20T16:14:10;6.20;99.90
13697;DHT22;6920;50.080;8.226;2022-11-20T16:16:56;6.10;99.90
13697;DHT22;6920;50.080;8.226;2022-11-20T16:19:25;6.10;99.90
13697;DHT22;6920;50.080;8.226;2022-11-20T16:21:52;6.00;99.90
13697;DHT22;6920;50.080;8.226;2022-11-20T16:24:21;6.00;99.90
13697;DHT22;6920;50.080;8.226;2022-11-20T16:26:48;6.10;99.90
13697;DHT22;6920;50.080;8.226;2022-11-20T16:29:15;6.00;99.90
13697;DHT22;6920;50.080;8.226;2022-11-20T16:31:44;6.10;99.90
13697;DHT22;6920;50.080;8.226;2022-11-20T16:34:16;6.10;99.90
13697;DHT22;6920;50.080;8.226;2022-11-20T16:36:46;6.10;99.90
13697;DHT22;6920;50.080;8.226;2022-11-20T16:39:16;6.10;99.90
13697;DHT22;6920;50.080;8.226;2022-11-20T16:41:43;6.20;99.90
13697;DHT22;6920;50.080;8.226;2022-11-20T16:44:11;6.00;99.90